Terminal Aerodrome Forecast
Issued by NWS

Home | Current Version | Previous Version | Text Only | Print | Product List | Glossary On
Versions: 1 2 3 4 5 6 7 8 9 10 11 12 13 14
099
FTUS46 KSGX 252329
TAFONT
TAF
KONT 252329Z 2600/2706 VRB06KT P6SM FEW250
     FM261000 VRB04KT P6SM FEW250 WS015/03020KT
     FM261600 03010G18KT P6SM FEW250
     FM261900 VRB06KT P6SM FEW250
     FM262100 26010KT P6SM FEW250
     FM270300 VRB04KT P6SM FEW250=

USA.gov is the U.S. government's official web portal to all federal, state and local government web resources and services.